sensor_id;sensor_type;location;lat;lon;timestamp;P1;durP1;ratioP1;P2;durP2;ratioP2
76171;SDS011;64929;51.178;4.138;2024-01-27T00:00:05;16.75;;;5.22;;
76171;SDS011;64929;51.178;4.138;2024-01-27T00:02:31;18.98;;;5.28;;
76171;SDS011;64929;51.178;4.138;2024-01-27T00:04:56;13.27;;;4.57;;
76171;SDS011;64929;51.178;4.138;2024-01-27T00:07:22;11.98;;;4.88;;
76171;SDS011;64929;51.178;4.138;2024-01-27T00:09:50;13.20;;;4.60;;
76171;SDS011;64929;51.178;4.138;2024-01-27T00:12:16;12.38;;;4.95;;
76171;SDS011;64929;51.178;4.138;2024-01-27T00:14:42;11.10;;;4.18;;
76171;SDS011;64929;51.178;4.138;2024-01-27T00:17:08;16.80;;;4.85;;
76171;SDS011;64929;51.178;4.138;2024-01-27T00:19:34;11.90;;;4.15;;
76171;SDS011;64929;51.178;4.138;2024-01-27T00:22:00;13.07;;;4.88;;
76171;SDS011;64929;51.178;4.138;2024-01-27T00:24:25;17.67;;;5.35;;
76171;SDS011;64929;51.178;4.138;2024-01-27T00:26:51;13.32;;;5.25;;
76171;SDS011;64929;51.178;4.138;2024-01-27T00:29:17;12.07;;;4.82;;
76171;SDS011;64929;51.178;4.138;2024-01-27T00:31:43;11.23;;;4.82;;
76171;SDS011;64929;51.178;4.138;2024-01-27T00:34:08;16.95;;;5.55;;
76171;SDS011;64929;51.178;4.138;2024-01-27T00:36:34;18.27;;;5.60;;
76171;SDS011;64929;51.178;4.138;2024-01-27T00:39:02;15.40;;;5.20;;
76171;SDS011;64929;51.178;4.138;2024-01-27T00:41:28;14.52;;;4.68;;
76171;SDS011;64929;51.178;4.138;2024-01-27T00:43:54;13.38;;;5.00;;
76171;SDS011;64929;51.178;4.138;2024-01-27T00:46:20;12.18;;;4.78;;
76171;SDS011;64929;51.178;4.138;2024-01-27T00:48:46;12.25;;;5.15;;
76171;SDS011;64929;51.178;4.138;2024-01-27T00:51:12;12.70;;;4.88;;
76171;SDS011;64929;51.178;4.138;2024-01-27T00:53:38;14.73;;;5.68;;
76171;SDS011;64929;51.178;4.138;2024-01-27T00:56:04;19.55;;;5.38;;
76171;SDS011;64929;51.178;4.138;2024-01-27T00:58:30;16.48;;;5.05;;
76171;SDS011;64929;51.178;4.138;2024-01-27T01:00:56;12.25;;;4.95;;
76171;SDS011;64929;51.178;4.138;2024-01-27T01:03:22;14.88;;;4.93;;
76171;SDS011;64929;51.178;4.138;2024-01-27T01:05:48;17.73;;;5.00;;
76171;SDS011;64929;51.178;4.138;2024-01-27T01:08:13;11.95;;;4.85;;
76171;SDS011;64929;51.178;4.138;2024-01-27T01:10:41;18.35;;;5.00;;
76171;SDS011;64929;51.178;4.138;2024-01-27T01:13:07;17.95;;;5.45;;
76171;SDS011;64929;51.178;4.138;2024-01-27T01:15:33;10.05;;;5.05;;
76171;SDS011;64929;51.178;4.138;2024-01-27T01:17:59;14.85;;;5.35;;
76171;SDS011;64929;51.178;4.138;2024-01-27T01:20:25;16.20;;;5.60;;
76171;SDS011;64929;51.178;4.138;2024-01-27T01:22:52;16.73;;;5.15;;
76171;SDS011;64929;51.178;4.138;2024-01-27T01:25:18;19.40;;;4.93;;
76171;SDS011;64929;51.178;4.138;2024-01-27T01:27:44;18.98;;;5.22;;
76171;SDS011;64929;51.178;4.138;2024-01-27T01:30:11;11.80;;;5.10;;
76171;SDS011;64929;51.178;4.138;2024-01-27T01:32:37;18.98;;;5.28;;
76171;SDS011;64929;51.178;4.138;2024-01-27T01:35:02;16.50;;;5.38;;
76171;SDS011;64929;51.178;4.138;2024-01-27T01:37:29;12.48;;;4.97;;
76171;SDS011;64929;51.178;4.138;2024-01-27T01:39:54;11.93;;;4.57;;
76171;SDS011;64929;51.178;4.138;2024-01-27T01:42:20;13.40;;;5.80;;
76171;SDS011;64929;51.178;4.138;2024-01-27T01:44:49;15.97;;;5.10;;
76171;SDS011;64929;51.178;4.138;2024-01-27T01:47:16;16.52;;;5.57;;
76171;SDS011;64929;51.178;4.138;2024-01-27T01:49:42;11.45;;;5.10;;
76171;SDS011;64929;51.178;4.138;2024-01-27T01:52:08;13.38;;;5.50;;
76171;SDS011;64929;51.178;4.138;2024-01-27T01:54:34;14.35;;;4.97;;
76171;SDS011;64929;51.178;4.138;2024-01-27T01:57:00;18.40;;;5.28;;
76171;SDS011;64929;51.178;4.138;2024-01-27T01:59:27;13.07;;;6.15;;
76171;SDS011;64929;51.178;4.138;2024-01-27T02:01:52;19.67;;;7.97;;
76171;SDS011;64929;51.178;4.138;2024-01-27T02:04:18;24.42;;;8.70;;
76171;SDS011;64929;51.178;4.138;2024-01-27T02:06:44;21.88;;;8.63;;
76171;SDS011;64929;51.178;4.138;2024-01-27T02:09:09;15.63;;;5.63;;
76171;SDS011;64929;51.178;4.138;2024-01-27T02:11:36;16.90;;;5.63;;
76171;SDS011;64929;51.178;4.138;2024-01-27T02:14:02;15.85;;;5.72;;
76171;SDS011;64929;51.178;4.138;2024-01-27T02:16:27;11.35;;;5.32;;
76171;SDS011;64929;51.178;4.138;2024-01-27T02:18:53;17.23;;;6.28;;
76171;SDS011;64929;51.178;4.138;2024-01-27T02:21:19;15.48;;;6.53;;
76171;SDS011;64929;51.178;4.138;2024-01-27T02:23:44;16.45;;;6.18;;
76171;SDS011;64929;51.178;4.138;2024-01-27T02:26:10;16.67;;;6.72;;
76171;SDS011;64929;51.178;4.138;2024-01-27T02:28:36;15.60;;;6.35;;
76171;SDS011;64929;51.178;4.138;2024-01-27T02:31:01;16.33;;;5.85;;
76171;SDS011;64929;51.178;4.138;2024-01-27T02:33:28;16.00;;;6.60;;
76171;SDS011;64929;51.178;4.138;2024-01-27T02:35:54;19.95;;;6.57;;
76171;SDS011;64929;51.178;4.138;2024-01-27T02:38:20;18.33;;;6.65;;
76171;SDS011;64929;51.178;4.138;2024-01-27T02:40:45;21.30;;;7.20;;
76171;SDS011;64929;51.178;4.138;2024-01-27T02:43:11;15.43;;;6.38;;
76171;SDS011;64929;51.178;4.138;2024-01-27T02:45:37;19.35;;;6.75;;
76171;SDS011;64929;51.178;4.138;2024-01-27T02:48:03;15.52;;;6.00;;
76171;SDS011;64929;51.178;4.138;2024-01-27T02:50:29;14.82;;;6.45;;
76171;SDS011;64929;51.178;4.138;2024-01-27T02:52:54;17.08;;;6.20;;
76171;SDS011;64929;51.178;4.138;2024-01-27T02:55:20;13.65;;;5.95;;
76171;SDS011;64929;51.178;4.138;2024-01-27T02:57:46;20.65;;;7.55;;
76171;SDS011;64929;51.178;4.138;2024-01-27T03:00:11;25.00;;;5.90;;
76171;SDS011;64929;51.178;4.138;2024-01-27T03:02:37;17.17;;;5.93;;
76171;SDS011;64929;51.178;4.138;2024-01-27T03:05:03;16.83;;;5.93;;
76171;SDS011;64929;51.178;4.138;2024-01-27T03:07:29;18.42;;;5.45;;
76171;SDS011;64929;51.178;4.138;2024-01-27T03:09:55;14.27;;;5.28;;
76171;SDS011;64929;51.178;4.138;2024-01-27T03:12:21;14.27;;;5.07;;
76171;SDS011;64929;51.178;4.138;2024-01-27T03:14:48;12.38;;;5.38;;
76171;SDS011;64929;51.178;4.138;2024-01-27T03:17:14;13.60;;;5.30;;
76171;SDS011;64929;51.178;4.138;2024-01-27T03:19:40;16.65;;;5.68;;
76171;SDS011;64929;51.178;4.138;2024-01-27T03:22:06;17.63;;;5.45;;
76171;SDS011;64929;51.178;4.138;2024-01-27T03:24:32;13.43;;;5.30;;
76171;SDS011;64929;51.178;4.138;2024-01-27T03:26:57;14.30;;;5.53;;
76171;SDS011;64929;51.178;4.138;2024-01-27T03:29:23;15.93;;;5.97;;
76171;SDS011;64929;51.178;4.138;2024-01-27T03:31:49;20.10;;;6.68;;
76171;SDS011;64929;51.178;4.138;2024-01-27T03:34:14;15.85;;;6.13;;
76171;SDS011;64929;51.178;4.138;2024-01-27T03:36:40;18.27;;;6.20;;
76171;SDS011;64929;51.178;4.138;2024-01-27T03:39:06;14.68;;;5.72;;
76171;SDS011;64929;51.178;4.138;2024-01-27T03:41:33;19.05;;;5.97;;
76171;SDS011;64929;51.178;4.138;2024-01-27T03:43:58;14.50;;;5.57;;
76171;SDS011;64929;51.178;4.138;2024-01-27T03:46:24;16.80;;;6.25;;
76171;SDS011;64929;51.178;4.138;2024-01-27T03:48:50;14.60;;;5.90;;
76171;SDS011;64929;51.178;4.138;2024-01-27T03:51:15;22.48;;;6.40;;
76171;SDS011;64929;51.178;4.138;2024-01-27T03:53:41;17.70;;;5.53;;
76171;SDS011;64929;51.178;4.138;2024-01-27T03:56:07;20.80;;;5.05;;
76171;SDS011;64929;51.178;4.138;2024-01-27T04:01:03;17.75;;;5.55;;
76171;SDS011;64929;51.178;4.138;2024-01-27T04:03:29;15.75;;;6.18;;
76171;SDS011;64929;51.178;4.138;2024-01-27T04:05:55;16.30;;;5.63;;
76171;SDS011;64929;51.178;4.138;2024-01-27T04:08:21;14.32;;;5.88;;
76171;SDS011;64929;51.178;4.138;2024-01-27T04:10:46;23.63;;;6.25;;
76171;SDS011;64929;51.178;4.138;2024-01-27T04:13:12;14.85;;;5.75;;
76171;SDS011;64929;51.178;4.138;2024-01-27T04:15:38;14.10;;;5.90;;
76171;SDS011;64929;51.178;4.138;2024-01-27T04:18:07;15.10;;;6.55;;
76171;SDS011;64929;51.178;4.138;2024-01-27T04:20:34;14.00;;;5.45;;
76171;SDS011;64929;51.178;4.138;2024-01-27T04:23:00;14.50;;;5.60;;
76171;SDS011;64929;51.178;4.138;2024-01-27T04:25:26;12.13;;;5.60;;
76171;SDS011;64929;51.178;4.138;2024-01-27T04:27:52;14.70;;;5.70;;
76171;SDS011;64929;51.178;4.138;2024-01-27T04:30:18;13.10;;;5.93;;
76171;SDS011;64929;51.178;4.138;2024-01-27T04:32:44;13.32;;;5.63;;
76171;SDS011;64929;51.178;4.138;2024-01-27T04:35:10;17.95;;;5.70;;
76171;SDS011;64929;51.178;4.138;2024-01-27T04:37:36;23.27;;;6.13;;
76171;SDS011;64929;51.178;4.138;2024-01-27T04:40:06;16.87;;;6.50;;
76171;SDS011;64929;51.178;4.138;2024-01-27T04:42:37;16.40;;;5.70;;
76171;SDS011;64929;51.178;4.138;2024-01-27T04:45:03;16.70;;;6.13;;
76171;SDS011;64929;51.178;4.138;2024-01-27T04:47:30;22.27;;;6.83;;
76171;SDS011;64929;51.178;4.138;2024-01-27T04:49:56;18.38;;;6.80;;
76171;SDS011;64929;51.178;4.138;2024-01-27T04:52:22;17.03;;;6.70;;
76171;SDS011;64929;51.178;4.138;2024-01-27T04:54:49;21.50;;;6.77;;
76171;SDS011;64929;51.178;4.138;2024-01-27T04:57:15;17.00;;;5.93;;
76171;SDS011;64929;51.178;4.138;2024-01-27T04:59:41;15.20;;;5.53;;
76171;SDS011;64929;51.178;4.138;2024-01-27T05:02:07;11.65;;;5.53;;
76171;SDS011;64929;51.178;4.138;2024-01-27T05:04:32;20.48;;;5.88;;
76171;SDS011;64929;51.178;4.138;2024-01-27T05:06:58;15.05;;;6.25;;
76171;SDS011;64929;51.178;4.138;2024-01-27T05:09:24;20.92;;;6.45;;
76171;SDS011;64929;51.178;4.138;2024-01-27T05:11:50;13.75;;;5.85;;
76171;SDS011;64929;51.178;4.138;2024-01-27T05:14:19;19.48;;;6.75;;
76171;SDS011;64929;51.178;4.138;2024-01-27T05:16:45;16.15;;;7.13;;
76171;SDS011;64929;51.178;4.138;2024-01-27T05:19:10;15.55;;;5.85;;
76171;SDS011;64929;51.178;4.138;2024-01-27T05:21:37;12.68;;;5.60;;
76171;SDS011;64929;51.178;4.138;2024-01-27T05:24:03;13.13;;;6.47;;
76171;SDS011;64929;51.178;4.138;2024-01-27T05:26:29;18.50;;;6.40;;
76171;SDS011;64929;51.178;4.138;2024-01-27T05:28:55;17.30;;;7.50;;
76171;SDS011;64929;51.178;4.138;2024-01-27T05:31:21;21.77;;;7.18;;
76171;SDS011;64929;51.178;4.138;2024-01-27T05:33:46;15.05;;;6.60;;
76171;SDS011;64929;51.178;4.138;2024-01-27T05:36:12;17.77;;;6.82;;
76171;SDS011;64929;51.178;4.138;2024-01-27T05:38:38;17.15;;;7.18;;
76171;SDS011;64929;51.178;4.138;2024-01-27T05:41:03;17.92;;;8.02;;
76171;SDS011;64929;51.178;4.138;2024-01-27T05:43:29;21.83;;;8.67;;
76171;SDS011;64929;51.178;4.138;2024-01-27T05:45:55;17.73;;;7.25;;
76171;SDS011;64929;51.178;4.138;2024-01-27T05:48:21;16.93;;;7.03;;
76171;SDS011;64929;51.178;4.138;2024-01-27T05:50:56;21.63;;;7.83;;
76171;SDS011;64929;51.178;4.138;2024-01-27T05:53:23;16.47;;;7.23;;
76171;SDS011;64929;51.178;4.138;2024-01-27T05:55:49;14.97;;;6.90;;
76171;SDS011;64929;51.178;4.138;2024-01-27T05:58:15;19.93;;;7.30;;
76171;SDS011;64929;51.178;4.138;2024-01-27T06:00:42;16.40;;;7.80;;
76171;SDS011;64929;51.178;4.138;2024-01-27T06:03:09;17.47;;;8.47;;
76171;SDS011;64929;51.178;4.138;2024-01-27T06:05:35;21.47;;;8.93;;
76171;SDS011;64929;51.178;4.138;2024-01-27T06:08:01;21.97;;;8.60;;
76171;SDS011;64929;51.178;4.138;2024-01-27T06:10:27;25.63;;;8.97;;
76171;SDS011;64929;51.178;4.138;2024-01-27T06:12:52;20.70;;;8.13;;
76171;SDS011;64929;51.178;4.138;2024-01-27T06:15:18;20.93;;;8.83;;
76171;SDS011;64929;51.178;4.138;2024-01-27T06:17:44;19.00;;;7.90;;
76171;SDS011;64929;51.178;4.138;2024-01-27T06:20:10;22.83;;;9.43;;
76171;SDS011;64929;51.178;4.138;2024-01-27T06:22:36;20.67;;;8.57;;
76171;SDS011;64929;51.178;4.138;2024-01-27T06:25:01;18.33;;;8.87;;
76171;SDS011;64929;51.178;4.138;2024-01-27T06:27:27;21.80;;;9.23;;
76171;SDS011;64929;51.178;4.138;2024-01-27T06:29:53;23.63;;;9.70;;
76171;SDS011;64929;51.178;4.138;2024-01-27T06:32:18;26.90;;;8.70;;
76171;SDS011;64929;51.178;4.138;2024-01-27T06:34:44;21.77;;;10.97;;
76171;SDS011;64929;51.178;4.138;2024-01-27T06:37:10;20.03;;;8.77;;
76171;SDS011;64929;51.178;4.138;2024-01-27T06:39:35;25.33;;;9.53;;
76171;SDS011;64929;51.178;4.138;2024-01-27T06:42:01;15.83;;;9.40;;
76171;SDS011;64929;51.178;4.138;2024-01-27T06:44:27;20.07;;;8.43;;
76171;SDS011;64929;51.178;4.138;2024-01-27T06:46:53;21.00;;;9.80;;
76171;SDS011;64929;51.178;4.138;2024-01-27T06:49:18;22.87;;;9.77;;
76171;SDS011;64929;51.178;4.138;2024-01-27T06:51:45;19.43;;;9.67;;
76171;SDS011;64929;51.178;4.138;2024-01-27T06:54:11;29.57;;;11.40;;
76171;SDS011;64929;51.178;4.138;2024-01-27T06:56:37;33.33;;;16.47;;
76171;SDS011;64929;51.178;4.138;2024-01-27T06:59:03;38.73;;;16.47;;
76171;SDS011;64929;51.178;4.138;2024-01-27T07:01:29;33.10;;;12.60;;
76171;SDS011;64929;51.178;4.138;2024-01-27T07:03:54;28.13;;;12.77;;
76171;SDS011;64929;51.178;4.138;2024-01-27T07:06:20;27.37;;;11.23;;
76171;SDS011;64929;51.178;4.138;2024-01-27T07:08:46;29.77;;;12.67;;
76171;SDS011;64929;51.178;4.138;2024-01-27T07:11:12;22.47;;;9.13;;
76171;SDS011;64929;51.178;4.138;2024-01-27T07:13:37;20.37;;;9.40;;
76171;SDS011;64929;51.178;4.138;2024-01-27T07:16:04;22.93;;;9.13;;
76171;SDS011;64929;51.178;4.138;2024-01-27T07:18:30;24.70;;;9.10;;
76171;SDS011;64929;51.178;4.138;2024-01-27T07:20:56;19.70;;;11.00;;
76171;SDS011;64929;51.178;4.138;2024-01-27T07:23:24;19.77;;;10.50;;
76171;SDS011;64929;51.178;4.138;2024-01-27T07:25:50;20.03;;;9.87;;
76171;SDS011;64929;51.178;4.138;2024-01-27T07:28:15;24.67;;;10.43;;
76171;SDS011;64929;51.178;4.138;2024-01-27T07:30:43;24.23;;;10.00;;
76171;SDS011;64929;51.178;4.138;2024-01-27T07:33:09;20.80;;;9.90;;
76171;SDS011;64929;51.178;4.138;2024-01-27T07:35:35;27.57;;;10.47;;
76171;SDS011;64929;51.178;4.138;2024-01-27T07:38:01;24.50;;;10.37;;
76171;SDS011;64929;51.178;4.138;2024-01-27T07:40:26;23.57;;;9.77;;
76171;SDS011;64929;51.178;4.138;2024-01-27T07:42:52;21.90;;;9.23;;
76171;SDS011;64929;51.178;4.138;2024-01-27T07:45:18;28.73;;;9.47;;
76171;SDS011;64929;51.178;4.138;2024-01-27T07:47:43;25.43;;;9.60;;
76171;SDS011;64929;51.178;4.138;2024-01-27T07:50:09;18.30;;;9.13;;
76171;SDS011;64929;51.178;4.138;2024-01-27T07:52:35;26.17;;;9.10;;
76171;SDS011;64929;51.178;4.138;2024-01-27T07:55:01;19.50;;;9.87;;
76171;SDS011;64929;51.178;4.138;2024-01-27T07:57:27;23.67;;;9.87;;
76171;SDS011;64929;51.178;4.138;2024-01-27T07:59:53;30.93;;;12.20;;
76171;SDS011;64929;51.178;4.138;2024-01-27T08:02:19;22.47;;;8.60;;
76171;SDS011;64929;51.178;4.138;2024-01-27T08:04:44;20.03;;;9.30;;
76171;SDS011;64929;51.178;4.138;2024-01-27T08:07:10;20.07;;;8.87;;
76171;SDS011;64929;51.178;4.138;2024-01-27T08:09:36;16.73;;;8.03;;
76171;SDS011;64929;51.178;4.138;2024-01-27T08:12:03;29.63;;;9.60;;
76171;SDS011;64929;51.178;4.138;2024-01-27T08:14:28;24.90;;;9.23;;
76171;SDS011;64929;51.178;4.138;2024-01-27T08:16:55;17.07;;;8.47;;
76171;SDS011;64929;51.178;4.138;2024-01-27T08:19:22;22.30;;;8.67;;
76171;SDS011;64929;51.178;4.138;2024-01-27T08:21:48;24.97;;;8.93;;
76171;SDS011;64929;51.178;4.138;2024-01-27T08:24:15;28.17;;;10.27;;
76171;SDS011;64929;51.178;4.138;2024-01-27T08:26:41;78.17;;;24.10;;
76171;SDS011;64929;51.178;4.138;2024-01-27T08:29:08;96.87;;;31.83;;
76171;SDS011;64929;51.178;4.138;2024-01-27T08:31:34;41.67;;;17.20;;
76171;SDS011;64929;51.178;4.138;2024-01-27T08:34:00;22.07;;;11.70;;
76171;SDS011;64929;51.178;4.138;2024-01-27T08:36:25;22.73;;;9.07;;
76171;SDS011;64929;51.178;4.138;2024-01-27T08:38:51;28.73;;;11.90;;
76171;SDS011;64929;51.178;4.138;2024-01-27T08:41:18;20.70;;;9.13;;
76171;SDS011;64929;51.178;4.138;2024-01-27T08:43:44;22.67;;;8.43;;
76171;SDS011;64929;51.178;4.138;2024-01-27T08:46:10;32.73;;;13.10;;
76171;SDS011;64929;51.178;4.138;2024-01-27T08:48:37;29.33;;;12.13;;
76171;SDS011;64929;51.178;4.138;2024-01-27T08:51:03;27.75;;;10.32;;
76171;SDS011;64929;51.178;4.138;2024-01-27T08:53:29;22.98;;;10.68;;
76171;SDS011;64929;51.178;4.138;2024-01-27T08:55:55;18.83;;;8.00;;
76171;SDS011;64929;51.178;4.138;2024-01-27T08:58:20;22.55;;;7.80;;
76171;SDS011;64929;51.178;4.138;2024-01-27T09:00:46;25.27;;;8.00;;
76171;SDS011;64929;51.178;4.138;2024-01-27T09:03:12;24.92;;;9.27;;
76171;SDS011;64929;51.178;4.138;2024-01-27T09:05:39;25.73;;;9.73;;
76171;SDS011;64929;51.178;4.138;2024-01-27T09:08:06;19.55;;;7.82;;
76171;SDS011;64929;51.178;4.138;2024-01-27T09:10:32;14.43;;;7.15;;
76171;SDS011;64929;51.178;4.138;2024-01-27T09:12:58;17.50;;;7.22;;
76171;SDS011;64929;51.178;4.138;2024-01-27T09:15:24;21.02;;;7.82;;
76171;SDS011;64929;51.178;4.138;2024-01-27T09:17:50;21.75;;;6.90;;
76171;SDS011;64929;51.178;4.138;2024-01-27T09:20:16;21.40;;;7.47;;
76171;SDS011;64929;51.178;4.138;2024-01-27T09:22:42;15.73;;;7.05;;
76171;SDS011;64929;51.178;4.138;2024-01-27T09:25:09;20.90;;;7.47;;
76171;SDS011;64929;51.178;4.138;2024-01-27T09:27:35;16.42;;;7.38;;
76171;SDS011;64929;51.178;4.138;2024-01-27T09:30:01;20.92;;;8.15;;
76171;SDS011;64929;51.178;4.138;2024-01-27T09:32:28;16.23;;;7.05;;
76171;SDS011;64929;51.178;4.138;2024-01-27T09:34:53;15.90;;;6.68;;
76171;SDS011;64929;51.178;4.138;2024-01-27T09:37:19;21.30;;;8.57;;
76171;SDS011;64929;51.178;4.138;2024-01-27T09:39:45;25.80;;;8.15;;
76171;SDS011;64929;51.178;4.138;2024-01-27T09:42:12;18.90;;;6.53;;
76171;SDS011;64929;51.178;4.138;2024-01-27T09:44:44;17.30;;;6.97;;
76171;SDS011;64929;51.178;4.138;2024-01-27T09:47:13;17.25;;;5.97;;
76171;SDS011;64929;51.178;4.138;2024-01-27T09:49:39;15.32;;;5.03;;
76171;SDS011;64929;51.178;4.138;2024-01-27T09:52:06;16.30;;;5.70;;
76171;SDS011;64929;51.178;4.138;2024-01-27T09:54:33;31.83;;;7.53;;
76171;SDS011;64929;51.178;4.138;2024-01-27T09:56:59;16.80;;;5.63;;
76171;SDS011;64929;51.178;4.138;2024-01-27T09:59:26;17.50;;;6.35;;
76171;SDS011;64929;51.178;4.138;2024-01-27T10:01:52;21.80;;;6.40;;
76171;SDS011;64929;51.178;4.138;2024-01-27T10:04:19;16.52;;;5.85;;
76171;SDS011;64929;51.178;4.138;2024-01-27T10:06:47;18.77;;;5.85;;
76171;SDS011;64929;51.178;4.138;2024-01-27T10:09:15;20.00;;;5.97;;
76171;SDS011;64929;51.178;4.138;2024-01-27T10:11:43;15.55;;;6.22;;
76171;SDS011;64929;51.178;4.138;2024-01-27T10:14:11;15.15;;;5.63;;
76171;SDS011;64929;51.178;4.138;2024-01-27T10:16:43;17.80;;;5.90;;
76171;SDS011;64929;51.178;4.138;2024-01-27T10:19:14;17.38;;;6.43;;
76171;SDS011;64929;51.178;4.138;2024-01-27T10:21:42;19.23;;;5.75;;
76171;SDS011;64929;51.178;4.138;2024-01-27T10:24:09;18.30;;;6.32;;
76171;SDS011;64929;51.178;4.138;2024-01-27T10:26:34;29.45;;;10.10;;
76171;SDS011;64929;51.178;4.138;2024-01-27T10:29:00;26.50;;;8.88;;
76171;SDS011;64929;51.178;4.138;2024-01-27T10:31:36;25.80;;;8.43;;
76171;SDS011;64929;51.178;4.138;2024-01-27T10:34:02;35.00;;;11.77;;
76171;SDS011;64929;51.178;4.138;2024-01-27T10:36:38;26.85;;;10.35;;
76171;SDS011;64929;51.178;4.138;2024-01-27T10:39:15;23.77;;;6.40;;
76171;SDS011;64929;51.178;4.138;2024-01-27T10:41:43;22.73;;;7.35;;
76171;SDS011;64929;51.178;4.138;2024-01-27T10:44:12;16.80;;;5.65;;
76171;SDS011;64929;51.178;4.138;2024-01-27T10:46:40;19.85;;;5.50;;
76171;SDS011;64929;51.178;4.138;2024-01-27T10:49:14;14.85;;;5.72;;
76171;SDS011;64929;51.178;4.138;2024-01-27T10:54:18;16.35;;;5.70;;
76171;SDS011;64929;51.178;4.138;2024-01-27T10:56:56;17.13;;;5.78;;
76171;SDS011;64929;51.178;4.138;2024-01-27T10:59:23;17.33;;;6.90;;
76171;SDS011;64929;51.178;4.138;2024-01-27T11:01:54;16.27;;;6.00;;
76171;SDS011;64929;51.178;4.138;2024-01-27T11:04:21;22.27;;;6.17;;
76171;SDS011;64929;51.178;4.138;2024-01-27T11:06:48;16.75;;;5.60;;
76171;SDS011;64929;51.178;4.138;2024-01-27T11:09:14;22.33;;;5.13;;
76171;SDS011;64929;51.178;4.138;2024-01-27T11:11:40;17.30;;;5.00;;
76171;SDS011;64929;51.178;4.138;2024-01-27T11:14:08;17.25;;;4.80;;
76171;SDS011;64929;51.178;4.138;2024-01-27T11:16:36;18.60;;;6.22;;
76171;SDS011;64929;51.178;4.138;2024-01-27T11:19:10;14.75;;;4.82;;
76171;SDS011;64929;51.178;4.138;2024-01-27T11:21:36;17.60;;;4.70;;
76171;SDS011;64929;51.178;4.138;2024-01-27T11:24:12;12.60;;;4.22;;
76171;SDS011;64929;51.178;4.138;2024-01-27T11:26:41;15.93;;;4.85;;
76171;SDS011;64929;51.178;4.138;2024-01-27T11:29:10;15.35;;;4.50;;
76171;SDS011;64929;51.178;4.138;2024-01-27T11:31:44;14.02;;;4.95;;
76171;SDS011;64929;51.178;4.138;2024-01-27T11:34:10;17.75;;;4.75;;
76171;SDS011;64929;51.178;4.138;2024-01-27T11:36:37;16.60;;;5.50;;
76171;SDS011;64929;51.178;4.138;2024-01-27T11:39:03;11.18;;;4.88;;
76171;SDS011;64929;51.178;4.138;2024-01-27T11:41:29;18.45;;;4.75;;
76171;SDS011;64929;51.178;4.138;2024-01-27T11:43:56;16.80;;;4.75;;
76171;SDS011;64929;51.178;4.138;2024-01-27T11:46:24;18.13;;;4.38;;
76171;SDS011;64929;51.178;4.138;2024-01-27T11:48:51;13.45;;;4.22;;
76171;SDS011;64929;51.178;4.138;2024-01-27T11:51:16;16.27;;;4.85;;
76171;SDS011;64929;51.178;4.138;2024-01-27T11:53:44;15.52;;;5.65;;
76171;SDS011;64929;51.178;4.138;2024-01-27T11:56:10;17.65;;;5.25;;
76171;SDS011;64929;51.178;4.138;2024-01-27T11:58:36;16.45;;;5.10;;
76171;SDS011;64929;51.178;4.138;2024-01-27T12:01:01;16.77;;;4.68;;
76171;SDS011;64929;51.178;4.138;2024-01-27T12:03:28;22.05;;;4.43;;
76171;SDS011;64929;51.178;4.138;2024-01-27T12:05:57;18.90;;;5.05;;
76171;SDS011;64929;51.178;4.138;2024-01-27T12:08:23;10.82;;;4.35;;
76171;SDS011;64929;51.178;4.138;2024-01-27T12:10:49;20.48;;;5.70;;
76171;SDS011;64929;51.178;4.138;2024-01-27T12:13:15;18.35;;;4.45;;
76171;SDS011;64929;51.178;4.138;2024-01-27T12:15:41;19.30;;;4.80;;
76171;SDS011;64929;51.178;4.138;2024-01-27T12:18:08;14.95;;;4.25;;
76171;SDS011;64929;51.178;4.138;2024-01-27T12:20:34;16.80;;;4.82;;
76171;SDS011;64929;51.178;4.138;2024-01-27T12:23:03;19.00;;;4.80;;
76171;SDS011;64929;51.178;4.138;2024-01-27T12:25:32;15.88;;;4.95;;
76171;SDS011;64929;51.178;4.138;2024-01-27T12:28:02;20.52;;;5.78;;
76171;SDS011;64929;51.178;4.138;2024-01-27T12:30:28;22.42;;;5.00;;
76171;SDS011;64929;51.178;4.138;2024-01-27T12:32:54;20.63;;;4.47;;
76171;SDS011;64929;51.178;4.138;2024-01-27T12:35:21;22.27;;;4.85;;
76171;SDS011;64929;51.178;4.138;2024-01-27T12:37:46;23.27;;;6.07;;
76171;SDS011;64929;51.178;4.138;2024-01-27T12:40:18;19.77;;;4.20;;
76171;SDS011;64929;51.178;4.138;2024-01-27T12:42:44;16.85;;;4.47;;
76171;SDS011;64929;51.178;4.138;2024-01-27T12:45:10;13.93;;;4.60;;
76171;SDS011;64929;51.178;4.138;2024-01-27T12:47:36;17.73;;;4.65;;
76171;SDS011;64929;51.178;4.138;2024-01-27T12:50:01;18.02;;;3.90;;
76171;SDS011;64929;51.178;4.138;2024-01-27T12:52:27;19.83;;;4.13;;
76171;SDS011;64929;51.178;4.138;2024-01-27T12:54:53;22.30;;;4.35;;
76171;SDS011;64929;51.178;4.138;2024-01-27T12:57:19;9.27;;;3.58;;
76171;SDS011;64929;51.178;4.138;2024-01-27T12:59:45;13.68;;;3.20;;
76171;SDS011;64929;51.178;4.138;2024-01-27T13:02:11;15.98;;;3.78;;
76171;SDS011;64929;51.178;4.138;2024-01-27T13:04:40;25.60;;;4.07;;
76171;SDS011;64929;51.178;4.138;2024-01-27T13:07:06;17.52;;;4.10;;
76171;SDS011;64929;51.178;4.138;2024-01-27T13:09:32;14.25;;;3.50;;
76171;SDS011;64929;51.178;4.138;2024-01-27T13:11:57;15.45;;;3.05;;
76171;SDS011;64929;51.178;4.138;2024-01-27T13:14:23;12.35;;;3.22;;
76171;SDS011;64929;51.178;4.138;2024-01-27T13:16:49;16.58;;;4.07;;
76171;SDS011;64929;51.178;4.138;2024-01-27T13:19:15;16.00;;;3.65;;
76171;SDS011;64929;51.178;4.138;2024-01-27T13:21:41;11.82;;;2.97;;
76171;SDS011;64929;51.178;4.138;2024-01-27T13:24:06;11.48;;;4.28;;
76171;SDS011;64929;51.178;4.138;2024-01-27T13:26:35;14.90;;;3.88;;
76171;SDS011;64929;51.178;4.138;2024-01-27T13:29:04;14.07;;;3.33;;
76171;SDS011;64929;51.178;4.138;2024-01-27T13:31:30;7.93;;;2.53;;
76171;SDS011;64929;51.178;4.138;2024-01-27T13:33:56;12.93;;;2.65;;
76171;SDS011;64929;51.178;4.138;2024-01-27T13:36:22;12.95;;;2.70;;
76171;SDS011;64929;51.178;4.138;2024-01-27T13:38:48;11.45;;;2.92;;
76171;SDS011;64929;51.178;4.138;2024-01-27T13:41:14;11.68;;;2.97;;
76171;SDS011;64929;51.178;4.138;2024-01-27T13:43:40;16.30;;;3.33;;
76171;SDS011;64929;51.178;4.138;2024-01-27T13:46:06;10.48;;;2.55;;
76171;SDS011;64929;51.178;4.138;2024-01-27T13:48:32;11.77;;;2.63;;
76171;SDS011;64929;51.178;4.138;2024-01-27T13:50:58;13.25;;;2.90;;
76171;SDS011;64929;51.178;4.138;2024-01-27T13:53:24;10.32;;;2.65;;
76171;SDS011;64929;51.178;4.138;2024-01-27T13:55:49;10.55;;;2.60;;
76171;SDS011;64929;51.178;4.138;2024-01-27T13:58:16;7.65;;;2.45;;
76171;SDS011;64929;51.178;4.138;2024-01-27T14:00:43;16.27;;;4.10;;
76171;SDS011;64929;51.178;4.138;2024-01-27T14:03:09;11.30;;;3.10;;
76171;SDS011;64929;51.178;4.138;2024-01-27T14:05:34;14.00;;;3.50;;
76171;SDS011;64929;51.178;4.138;2024-01-27T14:08:00;13.98;;;2.50;;
76171;SDS011;64929;51.178;4.138;2024-01-27T14:10:26;13.20;;;3.40;;
76171;SDS011;64929;51.178;4.138;2024-01-27T14:12:52;16.40;;;2.88;;
76171;SDS011;64929;51.178;4.138;2024-01-27T14:15:18;7.47;;;2.33;;
76171;SDS011;64929;51.178;4.138;2024-01-27T14:17:43;7.65;;;2.75;;
76171;SDS011;64929;51.178;4.138;2024-01-27T14:20:10;14.70;;;4.53;;
76171;SDS011;64929;51.178;4.138;2024-01-27T14:22:37;15.50;;;3.47;;
76171;SDS011;64929;51.178;4.138;2024-01-27T14:25:03;13.57;;;3.78;;
76171;SDS011;64929;51.178;4.138;2024-01-27T14:27:29;7.45;;;2.15;;
76171;SDS011;64929;51.178;4.138;2024-01-27T14:29:55;9.60;;;2.85;;
76171;SDS011;64929;51.178;4.138;2024-01-27T14:32:21;10.35;;;3.13;;